Time;durP1;ratioP1;P1;durP2;ratioP2;P2;SDS_P1;SDS_P2;PMS_P1;PMS_P2;Temp;Humidity;BMP_temperature;BMP_pressure;BME280_temperature;BME280_humidity;BME280_pressure;Samples;Min_cycle;Max_cycle;Signal;HPM_P1;HPM_P2
2023/01/09 00:01:48;;;;;;;8.27;2.50;;;7.00;99.90;;;;;;5046759;28;20045;-59
2023/01/09 00:04:14;;;;;;;7.07;2.65;;;7.00;99.90;;;;;;5042760;28;20056;-60
2023/01/09 00:06:42;;;;;;;5.05;2.50;;;7.00;99.90;;;;;;5046340;28;20045;-59
2023/01/09 00:09:09;;;;;;;6.68;2.40;;;7.00;99.90;;;;;;5028012;28;20056;-60
2023/01/09 00:11:35;;;;;;;9.93;2.97;;;7.00;99.90;;;;;;5026158;28;20407;-59
2023/01/09 00:14:01;;;;;;;8.40;2.63;;;7.10;99.90;;;;;;5043425;28;20049;-59
2023/01/09 00:16:27;;;;;;;5.20;2.70;;;7.10;99.90;;;;;;5025036;28;20056;-59
2023/01/09 00:18:53;;;;;;;9.52;2.95;;;7.10;99.90;;;;;;5040768;28;20491;-59
2023/01/09 00:21:19;;;;;;;5.88;2.97;;;7.10;99.90;;;;;;5018368;28;20049;-60
2023/01/09 00:23:45;;;;;;;4.80;2.20;;;7.10;99.90;;;;;;5043835;28;20040;-59
2023/01/09 00:26:15;;;;;;;5.07;2.22;;;7.10;99.90;;;;;;5024140;28;20076;-59
2023/01/09 00:28:41;;;;;;;5.55;2.10;;;7.00;99.90;;;;;;5042538;28;20564;-58
2023/01/09 00:31:08;;;;;;;3.63;1.95;;;7.00;99.90;;;;;;5036069;28;20052;-59
2023/01/09 00:33:49;;;;;;;3.58;1.25;;;7.00;99.90;;;;;;5019992;28;20460;-59
2023/01/09 00:36:15;;;;;;;2.33;0.90;;;7.00;99.90;;;;;;5027140;28;20048;-58
2023/01/09 00:38:41;;;;;;;1.70;0.98;;;6.90;99.90;;;;;;5025481;28;20165;-60
2023/01/09 00:41:13;;;;;;;3.35;1.00;;;6.90;99.90;;;;;;5026339;28;20041;-59
2023/01/09 00:43:46;;;;;;;1.98;0.98;;;6.90;99.90;;;;;;5045902;28;20530;-59
2023/01/09 00:46:14;;;;;;;2.53;0.90;;;6.90;99.90;;;;;;5043999;28;20037;-60
2023/01/09 00:48:42;;;;;;;2.65;0.80;;;6.80;99.90;;;;;;5044310;28;20483;-60
2023/01/09 00:51:08;;;;;;;2.05;0.80;;;6.80;99.90;;;;;;5037399;28;20052;-58
2023/01/09 00:53:38;;;;;;;1.10;0.63;;;6.80;99.90;;;;;;5045416;28;20044;-60
2023/01/09 00:56:08;;;;;;;2.58;0.93;;;6.80;99.90;;;;;;5044796;28;20045;-59
2023/01/09 00:58:34;;;;;;;1.65;0.50;;;6.80;99.90;;;;;;5047044;28;20087;-60
2023/01/09 01:01:00;;;;;;;2.58;0.77;;;6.80;99.90;;;;;;5029048;28;20786;-59
2023/01/09 01:03:26;;;;;;;1.45;1.10;;;6.80;99.90;;;;;;5043013;28;20045;-60
2023/01/09 01:08:36;;;;;;;1.83;0.70;;;6.80;99.90;;;;;;5025943;28;20049;-59
2023/01/09 01:11:09;;;;;;;1.23;0.75;;;6.80;99.90;;;;;;5027717;28;20048;-59
2023/01/09 01:13:36;;;;;;;2.30;0.80;;;6.70;99.90;;;;;;5043208;28;20045;-59
2023/01/09 01:16:10;;;;;;;2.08;0.63;;;6.70;99.90;;;;;;5006434;28;20045;-59
2023/01/09 01:18:36;;;;;;;1.55;0.90;;;6.70;99.90;;;;;;4999758;28;20049;-59
2023/01/09 01:21:10;;;;;;;3.42;1.20;;;6.60;99.90;;;;;;5042824;28;20052;-59
2023/01/09 01:23:36;;;;;;;3.17;1.10;;;6.70;99.90;;;;;;5040420;28;20049;-59
2023/01/09 01:26:07;;;;;;;2.50;1.10;;;6.60;99.90;;;;;;5021731;28;20057;-60
2023/01/09 01:28:33;;;;;;;2.97;1.10;;;6.60;99.90;;;;;;5040186;28;20457;-59
2023/01/09 01:30:59;;;;;;;3.88;1.60;;;6.60;99.90;;;;;;5018290;28;20061;-59
2023/01/09 01:33:25;;;;;;;2.47;1.25;;;6.50;99.90;;;;;;5041618;28;20076;-59
2023/01/09 01:36:02;;;;;;;4.07;1.30;;;6.50;99.90;;;;;;5041840;28;20199;-59
2023/01/09 01:38:29;;;;;;;1.38;1.02;;;6.50;99.90;;;;;;5039781;28;20502;-59
2023/01/09 01:40:55;;;;;;;6.47;1.30;;;6.50;99.90;;;;;;5040593;28;20063;-59
2023/01/09 01:43:21;;;;;;;1.70;1.00;;;6.50;99.90;;;;;;5040178;28;20063;-58
2023/01/09 01:45:47;;;;;;;1.77;1.20;;;6.50;99.90;;;;;;5043913;28;20099;-58
2023/01/09 01:48:21;;;;;;;4.85;1.52;;;6.50;99.90;;;;;;5041898;28;20077;-59
2023/01/09 01:51:01;;;;;;;2.40;1.50;;;6.50;99.90;;;;;;5041377;28;20041;-59
2023/01/09 01:53:35;;;;;;;5.38;1.70;;;6.50;99.90;;;;;;5025379;28;20072;-59
2023/01/09 01:56:16;;;;;;;4.85;1.60;;;6.50;99.90;;;;;;5022797;28;20657;-59
2023/01/09 01:58:54;;;;;;;4.03;1.52;;;6.50;99.90;;;;;;5041547;28;20060;-59
2023/01/09 02:01:21;;;;;;;3.85;1.60;;;6.50;99.90;;;;;;5038362;28;20510;-59
2023/01/09 02:03:48;;;;;;;2.65;1.80;;;6.50;99.90;;;;;;5020415;28;20088;-59
2023/01/09 02:06:14;;;;;;;5.82;2.40;;;6.50;99.90;;;;;;5030149;28;20537;-59
2023/01/09 02:08:41;;;;;;;6.72;2.10;;;6.50;99.90;;;;;;5040672;28;20055;-59
2023/01/09 02:11:06;;;;;;;6.93;2.10;;;6.50;99.90;;;;;;5043402;28;20406;-59
2023/01/09 02:13:34;;;;;;;4.45;2.40;;;6.50;99.90;;;;;;5041441;28;20041;-59
2023/01/09 02:16:09;;;;;;;7.13;2.20;;;6.50;99.90;;;;;;5040948;28;20547;-60
2023/01/09 02:18:51;;;;;;;5.18;2.30;;;6.50;99.90;;;;;;5045106;28;20044;-59
2023/01/09 02:21:19;;;;;;;6.30;2.08;;;6.50;99.90;;;;;;5046887;28;20051;-60
2023/01/09 02:24:12;;;;;;;4.68;2.20;;;6.50;99.90;;;;;;5042439;28;20083;-58
2023/01/09 02:26:43;;;;;;;8.63;2.30;;;6.50;99.90;;;;;;5039925;28;20060;-59
2023/01/09 02:29:30;;;;;;;4.75;2.33;;;6.50;99.90;;;;;;5022884;28;20040;-59
2023/01/09 02:32:18;;;;;;;6.03;2.33;;;6.50;99.90;;;;;;5010379;28;20195;-59
2023/01/09 02:35:22;;;;;;;8.05;2.75;;;6.50;99.90;;;;;;5044783;28;20505;-58
2023/01/09 02:37:54;;;;;;;4.20;2.40;;;6.50;99.90;;;;;;5031868;28;20045;-58
2023/01/09 02:40:41;;;;;;;7.55;2.40;;;6.40;99.90;;;;;;5022643;28;20056;-59
2023/01/09 02:43:08;;;;;;;6.43;2.33;;;6.40;99.90;;;;;;5040438;28;20041;-59
2023/01/09 02:45:33;;;;;;;6.28;2.50;;;6.40;99.90;;;;;;5044415;28;20057;-59
2023/01/09 02:47:59;;;;;;;4.85;2.35;;;6.40;99.90;;;;;;5037810;28;20050;-59
2023/01/09 02:50:45;;;;;;;5.63;2.25;;;6.40;99.90;;;;;;5022549;28;20052;-59
2023/01/09 02:53:22;;;;;;;6.82;2.40;;;6.30;99.90;;;;;;5038742;28;20195;-59
2023/01/09 02:56:29;;;;;;;4.88;2.30;;;6.30;99.90;;;;;;5022040;28;20107;-58
2023/01/09 02:59:01;;;;;;;8.43;2.50;;;6.30;99.90;;;;;;4987684;28;20057;-59
2023/01/09 03:01:51;;;;;;;6.13;2.60;;;6.30;99.90;;;;;;5018828;28;20946;-59
2023/01/09 03:04:43;;;;;;;10.15;2.55;;;6.30;99.90;;;;;;5031381;28;20122;-60
2023/01/09 03:07:23;;;;;;;4.38;2.28;;;6.20;99.90;;;;;;5022966;28;20057;-60
2023/01/09 03:09:53;;;;;;;4.97;2.17;;;6.20;99.90;;;;;;5013774;28;20072;-60
2023/01/09 03:12:22;;;;;;;7.50;2.40;;;6.20;99.90;;;;;;5014057;28;20036;-59
2023/01/09 03:14:52;;;;;;;6.60;2.30;;;6.20;99.90;;;;;;5037302;28;20067;-58
2023/01/09 03:17:28;;;;;;;4.90;2.40;;;6.20;99.90;;;;;;5015539;28;20074;-59
2023/01/09 03:19:56;;;;;;;8.32;2.55;;;6.20;99.90;;;;;;5027930;28;20045;-60
2023/01/09 03:22:23;;;;;;;9.88;2.42;;;6.10;99.90;;;;;;5038377;28;20052;-59
2023/01/09 03:24:49;;;;;;;5.32;2.55;;;6.10;99.90;;;;;;5039852;28;20045;-59
2023/01/09 03:27:15;;;;;;;8.48;2.78;;;6.00;99.90;;;;;;5039922;28;20045;-60
2023/01/09 03:29:40;;;;;;;11.27;2.60;;;6.00;99.90;;;;;;5037864;28;20115;-58
2023/01/09 03:32:06;;;;;;;8.52;2.83;;;6.00;99.90;;;;;;5021057;28;20040;-58
2023/01/09 03:34:32;;;;;;;9.30;2.72;;;6.00;99.90;;;;;;5037368;28;20067;-58
2023/01/09 03:36:58;;;;;;;5.03;2.55;;;6.00;99.90;;;;;;5024040;28;20045;-59
2023/01/09 03:39:24;;;;;;;9.25;3.03;;;5.90;99.90;;;;;;5023080;28;20049;-59
2023/01/09 03:41:50;;;;;;;7.50;2.70;;;5.90;99.90;;;;;;5016949;28;20085;-59
2023/01/09 03:44:15;;;;;;;7.47;2.72;;;5.90;99.90;;;;;;5014185;28;20093;-59
2023/01/09 03:46:41;;;;;;;10.93;2.97;;;5.90;99.90;;;;;;4992413;28;20041;-60
2023/01/09 03:49:07;;;;;;;6.38;2.63;;;5.80;99.90;;;;;;5039663;28;20041;-59
2023/01/09 03:51:33;;;;;;;8.05;3.20;;;5.80;99.90;;;;;;5022598;28;21119;-59
2023/01/09 03:53:58;;;;;;;9.73;3.30;;;5.80;99.90;;;;;;5034658;28;20056;-59
2023/01/09 03:56:24;;;;;;;9.48;3.00;;;5.80;99.90;;;;;;5040304;28;20110;-59
2023/01/09 03:58:52;;;;;;;9.02;3.42;;;5.70;99.90;;;;;;5037907;28;20128;-59
2023/01/09 04:01:17;;;;;;;8.05;3.10;;;5.70;99.90;;;;;;5040179;28;20491;-59
2023/01/09 04:03:43;;;;;;;7.28;3.13;;;5.70;99.90;;;;;;5037066;28;20144;-60
2023/01/09 04:06:09;;;;;;;6.57;3.17;;;5.70;99.90;;;;;;5035691;28;20049;-58
2023/01/09 04:08:35;;;;;;;7.10;2.97;;;5.60;99.90;;;;;;5037389;28;20183;-59
2023/01/09 04:11:00;;;;;;;9.80;3.20;;;5.50;99.90;;;;;;5042151;28;20041;-59
2023/01/09 04:13:26;;;;;;;8.07;3.53;;;5.60;99.90;;;;;;5024442;28;20073;-58
2023/01/09 04:15:52;;;;;;;8.05;3.47;;;5.50;99.90;;;;;;5040215;28;20116;-58
2023/01/09 04:18:18;;;;;;;5.13;3.20;;;5.60;99.90;;;;;;5041246;28;20052;-60
2023/01/09 04:20:46;;;;;;;6.35;3.33;;;5.50;99.90;;;;;;5039662;28;20036;-59
2023/01/09 04:23:12;;;;;;;6.93;3.13;;;5.50;99.90;;;;;;5034644;28;20072;-60
2023/01/09 04:25:38;;;;;;;8.07;3.60;;;5.50;99.90;;;;;;5041000;28;20073;-60
2023/01/09 04:28:04;;;;;;;9.73;3.80;;;5.40;99.90;;;;;;5024256;28;20122;-60
2023/01/09 04:30:30;;;;;;;13.63;4.13;;;5.40;99.90;;;;;;5016808;28;20048;-59
2023/01/09 04:32:56;;;;;;;8.77;4.43;;;5.40;99.90;;;;;;5042255;28;20082;-60
2023/01/09 04:35:21;;;;;;;10.60;4.70;;;5.40;99.90;;;;;;5042388;28;20094;-59
2023/01/09 04:37:47;;;;;;;9.70;4.20;;;5.40;99.90;;;;;;5026843;28;20116;-60
2023/01/09 04:40:14;;;;;;;7.63;3.85;;;5.40;99.90;;;;;;5008971;28;20601;-59
2023/01/09 04:42:40;;;;;;;9.80;4.32;;;5.40;99.90;;;;;;5044715;28;20493;-59
2023/01/09 04:45:07;;;;;;;9.38;4.68;;;5.40;99.90;;;;;;5018920;28;20190;-60
2023/01/09 04:47:33;;;;;;;16.88;4.82;;;5.40;99.90;;;;;;5042906;28;20055;-58
2023/01/09 04:50:00;;;;;;;18.33;5.13;;;5.40;99.90;;;;;;5038676;28;20445;-59
2023/01/09 04:52:26;;;;;;;9.27;4.70;;;5.40;99.90;;;;;;5026127;28;20570;-59
2023/01/09 04:54:52;;;;;;;11.80;5.28;;;5.30;99.90;;;;;;5045449;28;20044;-59
2023/01/09 04:57:18;;;;;;;10.02;4.78;;;5.30;99.90;;;;;;5026253;28;20049;-59
2023/01/09 04:59:44;;;;;;;7.85;4.72;;;5.30;99.90;;;;;;5029021;28;20063;-59
2023/01/09 05:02:10;;;;;;;12.18;5.65;;;5.30;99.90;;;;;;5040398;28;20045;-59
2023/01/09 05:04:36;;;;;;;9.82;5.40;;;5.20;99.90;;;;;;5038159;28;20060;-59
2023/01/09 05:07:02;;;;;;;9.07;4.95;;;5.20;99.90;;;;;;5025459;28;20041;-59
2023/01/09 05:09:28;;;;;;;11.25;5.53;;;5.20;99.90;;;;;;5042789;28;20060;-59
2023/01/09 05:11:53;;;;;;;11.48;5.30;;;5.20;99.90;;;;;;5041984;28;20047;-59
2023/01/09 05:14:19;;;;;;;13.65;6.20;;;5.20;99.90;;;;;;5041617;28;20491;-59
2023/01/09 05:16:45;;;;;;;12.45;6.07;;;5.20;99.90;;;;;;5042133;28;20045;-58
2023/01/09 05:19:11;;;;;;;14.70;6.53;;;5.20;99.90;;;;;;5024491;28;20044;-59
2023/01/09 05:21:37;;;;;;;11.95;6.47;;;5.10;99.90;;;;;;5010134;28;20041;-59
2023/01/09 05:24:03;;;;;;;11.40;6.38;;;5.10;99.90;;;;;;5025359;28;20129;-59
2023/01/09 05:26:29;;;;;;;15.43;6.97;;;5.10;99.90;;;;;;5041544;28;20052;-58
2023/01/09 05:28:55;;;;;;;14.50;7.07;;;5.20;99.90;;;;;;5043699;28;20797;-58
2023/01/09 05:31:22;;;;;;;15.75;7.55;;;5.10;99.90;;;;;;5038745;28;20469;-59
2023/01/09 05:33:48;;;;;;;16.13;7.63;;;5.00;99.90;;;;;;5022400;28;20033;-59
2023/01/09 05:36:14;;;;;;;14.27;8.00;;;5.10;99.90;;;;;;5042304;28;20074;-59
2023/01/09 05:38:43;;;;;;;14.73;8.55;;;5.10;99.90;;;;;;5027647;28;20140;-58
2023/01/09 05:41:09;;;;;;;19.92;8.68;;;5.10;99.90;;;;;;5043688;28;20063;-59
2023/01/09 05:43:35;;;;;;;16.80;8.95;;;5.20;99.90;;;;;;5030050;28;20041;-57
2023/01/09 05:46:01;;;;;;;17.13;9.82;;;5.10;99.90;;;;;;5043092;28;20128;-59
2023/01/09 05:48:27;;;;;;;17.77;9.55;;;5.10;99.90;;;;;;5038799;28;20051;-60
2023/01/09 05:50:53;;;;;;;20.85;10.13;;;5.10;99.90;;;;;;5039228;28;20498;-59
2023/01/09 05:53:18;;;;;;;19.50;10.45;;;5.20;99.90;;;;;;5036653;28;20048;-58
2023/01/09 05:55:44;;;;;;;18.45;11.88;;;5.20;99.90;;;;;;5020843;28;20076;-58
2023/01/09 05:58:10;;;;;;;20.75;11.82;;;5.20;99.90;;;;;;5042901;28;20053;-59
2023/01/09 06:00:36;;;;;;;24.90;13.10;;;5.20;99.90;;;;;;5039793;28;20431;-59
2023/01/09 06:03:02;;;;;;;23.85;13.23;;;5.20;99.90;;;;;;5033825;28;20460;-60
2023/01/09 06:05:27;;;;;;;27.05;14.15;;;5.30;99.90;;;;;;5036128;28;20061;-59
2023/01/09 06:07:53;;;;;;;24.23;14.55;;;5.40;99.90;;;;;;5040462;28;20063;-59
2023/01/09 06:10:19;;;;;;;24.83;16.10;;;5.30;99.90;;;;;;5044790;28;20086;-59
2023/01/09 06:12:50;;;;;;;25.90;15.60;;;5.30;99.90;;;;;;5044508;28;20040;-59
2023/01/09 06:15:16;;;;;;;24.90;15.70;;;5.40;99.90;;;;;;5040928;28;20041;-58
2023/01/09 06:17:42;;;;;;;28.75;17.63;;;5.40;99.90;;;;;;5037903;28;20052;-59
2023/01/09 06:20:10;;;;;;;27.35;17.48;;;5.50;99.90;;;;;;5039195;28;20037;-59
2023/01/09 06:22:35;;;;;;;28.08;17.00;;;5.50;99.90;;;;;;5040603;28;20036;-59
2023/01/09 06:25:02;;;;;;;28.90;16.80;;;5.50;99.90;;;;;;5039296;28;20051;-58
2023/01/09 06:27:27;;;;;;;29.77;16.95;;;5.50;99.90;;;;;;5040292;28;20116;-58
2023/01/09 06:29:53;;;;;;;28.77;17.38;;;5.50;99.90;;;;;;5039821;28;20051;-59
2023/01/09 06:32:19;;;;;;;30.75;17.27;;;5.50;99.90;;;;;;5015384;28;20087;-59
2023/01/09 06:34:45;;;;;;;27.40;17.65;;;5.50;99.90;;;;;;5020702;28;20044;-57
2023/01/09 06:37:11;;;;;;;28.13;16.90;;;5.50;99.90;;;;;;5027186;28;20041;-58
2023/01/09 06:39:36;;;;;;;26.13;16.92;;;5.60;99.90;;;;;;5024443;28;20063;-58
2023/01/09 06:42:02;;;;;;;25.85;16.50;;;5.70;99.90;;;;;;5024327;28;20114;-59
2023/01/09 06:44:28;;;;;;;24.90;16.55;;;5.60;99.90;;;;;;5039429;28;20075;-58
2023/01/09 06:46:54;;;;;;;30.25;16.35;;;5.60;99.90;;;;;;5006949;28;20051;-58
2023/01/09 06:49:23;;;;;;;27.15;15.82;;;5.60;99.90;;;;;;5027001;28;20411;-59
2023/01/09 06:51:50;;;;;;;24.42;15.77;;;5.60;99.90;;;;;;5020686;28;20546;-58
2023/01/09 06:54:17;;;;;;;25.35;16.60;;;5.60;99.90;;;;;;5026950;28;20052;-58
2023/01/09 06:56:44;;;;;;;23.92;15.05;;;5.60;99.90;;;;;;5039192;28;20107;-59
2023/01/09 06:59:10;;;;;;;21.02;14.75;;;5.60;99.90;;;;;;5036006;28;20553;-58
2023/01/09 07:01:38;;;;;;;25.42;15.20;;;5.60;99.90;;;;;;5016489;28;20141;-59
2023/01/09 07:04:05;;;;;;;28.20;14.85;;;5.60;99.90;;;;;;5014382;28;20079;-59
2023/01/09 07:06:31;;;;;;;28.42;15.60;;;5.60;99.90;;;;;;5014401;28;20033;-60
2023/01/09 07:08:57;;;;;;;24.58;15.25;;;5.60;99.90;;;;;;5042600;28;20044;-60
2023/01/09 07:11:22;;;;;;;27.98;15.23;;;5.70;99.90;;;;;;5023974;28;20064;-60
2023/01/09 07:13:49;;;;;;;26.85;14.93;;;5.70;99.90;;;;;;5024596;28;20103;-60
2023/01/09 07:16:15;;;;;;;27.70;15.57;;;5.70;99.90;;;;;;5041391;28;20112;-59
2023/01/09 07:18:40;;;;;;;25.73;15.25;;;5.70;99.90;;;;;;5040466;28;20075;-60
2023/01/09 07:21:06;;;;;;;25.38;15.40;;;5.60;99.90;;;;;;5023970;28;20040;-59
2023/01/09 07:23:33;;;;;;;27.73;14.68;;;5.60;99.90;;;;;;5025420;28;20081;-60
2023/01/09 07:25:59;;;;;;;24.02;14.88;;;5.60;99.90;;;;;;4990255;28;20041;-60
2023/01/09 07:28:25;;;;;;;19.70;13.88;;;5.60;99.90;;;;;;5045375;28;20398;-60
2023/01/09 07:30:52;;;;;;;24.65;14.95;;;5.60;99.90;;;;;;5023275;28;20048;-60
2023/01/09 07:33:18;;;;;;;25.13;14.85;;;5.60;99.90;;;;;;5026173;28;20052;-60
2023/01/09 07:35:43;;;;;;;24.45;13.55;;;5.50;99.90;;;;;;5008057;28;20049;-60
2023/01/09 07:38:09;;;;;;;27.27;13.98;;;5.60;99.90;;;;;;5043329;28;20124;-60
2023/01/09 07:40:35;;;;;;;21.23;13.45;;;5.60;99.90;;;;;;5028579;28;20044;-59
2023/01/09 07:43:01;;;;;;;24.55;13.77;;;5.60;99.90;;;;;;5045443;28;20109;-59
2023/01/09 07:45:27;;;;;;;24.05;12.63;;;5.60;99.90;;;;;;5043732;28;20053;-59
2023/01/09 07:47:53;;;;;;;20.27;13.05;;;5.60;99.90;;;;;;5027697;28;20041;-60
2023/01/09 07:50:19;;;;;;;19.08;12.05;;;5.60;99.90;;;;;;5023421;28;20037;-60
2023/01/09 07:52:46;;;;;;;21.65;11.45;;;5.60;99.90;;;;;;5045326;28;20045;-60
2023/01/09 07:55:12;;;;;;;23.42;11.85;;;5.60;99.90;;;;;;5046493;28;20080;-60
2023/01/09 07:57:38;;;;;;;20.80;11.73;;;5.60;99.90;;;;;;5027655;28;20561;-60
2023/01/09 08:00:06;;;;;;;22.65;11.90;;;5.60;99.90;;;;;;5007534;28;20483;-60
2023/01/09 08:02:32;;;;;;;20.65;11.55;;;5.60;99.90;;;;;;5039114;28;20044;-59
2023/01/09 08:04:58;;;;;;;18.15;11.18;;;5.60;99.90;;;;;;5008229;28;20108;-60
2023/01/09 08:07:24;;;;;;;17.17;10.48;;;5.60;99.90;;;;;;5004220;28;20121;-60
2023/01/09 08:09:49;;;;;;;19.92;10.85;;;5.60;99.90;;;;;;5004362;28;20104;-60
2023/01/09 08:12:15;;;;;;;18.42;10.63;;;5.50;99.90;;;;;;5005036;28;20177;-60
2023/01/09 08:14:41;;;;;;;14.85;10.40;;;5.50;99.90;;;;;;5007950;28;20487;-60
2023/01/09 08:17:08;;;;;;;15.52;10.00;;;5.50;99.90;;;;;;5006934;28;20140;-60
2023/01/09 08:19:34;;;;;;;17.95;9.63;;;5.50;99.90;;;;;;5008196;28;20111;-59
2023/01/09 08:21:59;;;;;;;20.40;9.15;;;5.50;99.90;;;;;;5010124;28;20034;-60
2023/01/09 08:24:25;;;;;;;16.70;8.95;;;5.50;99.90;;;;;;5005027;28;20116;-60
2023/01/09 08:26:51;;;;;;;18.67;9.30;;;5.50;99.90;;;;;;5006750;28;20042;-61
2023/01/09 08:29:17;;;;;;;14.82;8.50;;;5.50;99.90;;;;;;5007739;28;20046;-60
2023/01/09 08:31:42;;;;;;;13.23;8.75;;;5.50;99.90;;;;;;5011349;28;20459;-60
2023/01/09 08:34:08;;;;;;;14.65;8.75;;;5.50;99.90;;;;;;5009053;28;20049;-60
2023/01/09 08:36:34;;;;;;;17.48;8.93;;;5.50;99.90;;;;;;5002531;28;20120;-60
2023/01/09 08:39:00;;;;;;;13.98;8.43;;;5.50;99.90;;;;;;4997283;28;20108;-60
2023/01/09 08:47:06;;;;;;;15.75;8.73;;;5.50;99.90;;;;;;4989374;28;20077;-60
2023/01/09 08:49:33;;;;;;;15.68;8.18;;;5.50;99.90;;;;;;5005759;28;20551;-60
2023/01/09 08:51:59;;;;;;;15.80;8.25;;;5.50;99.90;;;;;;5006874;28;20090;-60
2023/01/09 08:54:25;;;;;;;12.07;7.55;;;5.50;99.90;;;;;;5007466;28;20124;-60
2023/01/09 08:56:50;;;;;;;17.17;8.43;;;5.50;99.90;;;;;;5007648;28;20042;-59
2023/01/09 08:59:16;;;;;;;14.80;8.45;;;5.50;99.90;;;;;;4991649;28;20068;-60
2023/01/09 09:01:42;;;;;;;13.90;8.20;;;5.50;99.90;;;;;;5002962;28;20042;-59
2023/01/09 09:04:09;;;;;;;14.18;7.82;;;5.50;99.90;;;;;;5010572;28;20092;-60
2023/01/09 09:06:35;;;;;;;12.43;7.72;;;5.60;99.90;;;;;;5027275;28;20041;-60
2023/01/09 09:09:05;;;;;;;14.60;8.20;;;5.60;99.90;;;;;;5043435;28;20055;-60
2023/01/09 09:11:34;;;;;;;13.98;7.72;;;5.60;99.90;;;;;;5046329;28;20132;-60
2023/01/09 09:15:11;;;;;;;21.42;7.63;;;5.60;99.90;;;;;;5047405;28;20057;-62
2023/01/09 09:16:47;;;;;;;16.17;7.72;;;5.60;99.90;;;;;;5050154;28;20044;-60
2023/01/09 09:19:13;;;;;;;13.18;6.90;;;5.70;99.90;;;;;;5027625;28;20060;-60
2023/01/09 09:21:39;;;;;;;11.45;7.00;;;5.70;99.90;;;;;;5020771;28;20041;-60
2023/01/09 09:24:05;;;;;;;13.63;7.13;;;5.70;99.90;;;;;;5046246;28;20482;-60
2023/01/09 09:26:31;;;;;;;11.68;6.88;;;5.70;99.90;;;;;;5045117;28;20051;-60
2023/01/09 09:28:57;;;;;;;14.95;6.35;;;5.70;99.90;;;;;;5046513;28;20127;-61
2023/01/09 09:31:23;;;;;;;13.38;6.60;;;5.80;99.90;;;;;;5028822;28;20400;-60
2023/01/09 09:33:49;;;;;;;7.53;5.88;;;5.80;99.90;;;;;;5042732;28;20127;-61
2023/01/09 09:36:15;;;;;;;12.30;6.38;;;5.90;99.90;;;;;;5029093;28;20040;-60
2023/01/09 09:38:40;;;;;;;12.77;6.22;;;5.90;99.90;;;;;;5036704;28;20060;-60
2023/01/09 09:47:31;;;;;;;14.60;5.70;;;5.90;99.90;;;;;;5047731;28;20086;-60
2023/01/09 09:50:04;;;;;;;14.35;5.80;;;5.90;99.90;;;;;;5031269;28;20064;-60
2023/01/09 09:52:52;;;;;;;11.48;5.32;;;5.90;99.90;;;;;;5047216;28;20526;-60
2023/01/09 09:55:35;;;;;;;14.18;6.00;;;6.00;99.90;;;;;;5044775;28;20072;-60
2023/01/09 09:58:08;;;;;;;;;;;6.00;99.90;;;;;;5046827;28;20048;-60
2023/01/09 10:00:34;;;;;;;;;;;6.10;99.90;;;;;;5046443;28;20054;-60
2023/01/09 10:03:09;;;;;;;10.80;5.85;;;6.00;99.90;;;;;;5022838;28;20010;-60
2023/01/09 10:05:41;;;;;;;11.02;5.45;;;6.00;99.90;;;;;;5045807;28;20072;-60
2023/01/09 10:08:28;;;;;;;9.57;5.43;;;6.10;99.90;;;;;;5027955;28;20048;-59
2023/01/09 10:10:54;;;;;;;12.02;5.28;;;6.10;99.90;;;;;;5049102;28;20048;-61
2023/01/09 10:16:30;;;;;;;11.98;5.30;;;6.10;99.90;;;;;;5041143;28;20124;-60
2023/01/09 10:19:02;;;;;;;10.35;5.20;;;6.20;99.90;;;;;;5043876;28;20131;-60
2023/01/09 10:21:58;;;;;;;12.30;5.45;;;6.20;99.90;;;;;;5033784;28;20443;-60
2023/01/09 10:24:37;;;;;;;14.13;5.38;;;6.20;99.90;;;;;;5041942;28;20471;-61
2023/01/09 10:27:21;;;;;;;11.30;4.55;;;6.20;99.90;;;;;;5046954;28;20045;-60
2023/01/09 10:30:00;;;;;;;11.85;5.28;;;6.30;99.90;;;;;;5027664;28;20175;-60
2023/01/09 10:32:26;;;;;;;9.68;5.28;;;6.30;99.90;;;;;;5046604;28;20047;-59
2023/01/09 10:34:58;;;;;;;12.50;4.72;;;6.30;99.90;;;;;;5025080;28;20037;-60
2023/01/09 10:37:41;;;;;;;14.77;4.90;;;6.40;99.90;;;;;;5018196;28;20045;-60
2023/01/09 10:40:21;;;;;;;;;;;6.40;99.90;;;;;;5044363;28;20544;-60
2023/01/09 10:43:10;;;;;;;8.05;4.80;;;6.40;99.90;;;;;;5022389;28;20011;-60
2023/01/09 10:45:43;;;;;;;10.18;4.90;;;6.40;99.90;;;;;;5045208;28;20033;-60
2023/01/09 10:48:37;;;;;;;16.13;5.18;;;6.40;99.90;;;;;;5043772;28;20033;-59
2023/01/09 10:51:20;;;;;;;11.55;5.05;;;6.50;99.90;;;;;;5042747;28;20487;-60
2023/01/09 10:53:50;;;;;;;11.35;4.78;;;6.50;99.90;;;;;;5042024;28;20033;-60
2023/01/09 10:56:23;;;;;;;9.43;4.88;;;6.60;99.90;;;;;;5045398;28;20063;-60
2023/01/09 10:58:50;;;;;;;11.55;4.80;;;6.60;99.90;;;;;;5028544;28;20049;-61
2023/01/09 11:01:25;;;;;;;12.30;4.63;;;6.60;99.90;;;;;;5042995;28;20037;-60
2023/01/09 11:03:51;;;;;;;11.85;5.10;;;6.60;99.90;;;;;;5045629;28;20047;-60
2023/01/09 11:06:35;;;;;;;9.57;4.88;;;6.60;99.90;;;;;;5044788;28;20492;-60
2023/01/09 11:09:02;;;;;;;11.40;4.88;;;6.60;99.90;;;;;;5023723;28;20614;-60
2023/01/09 11:11:43;;;;;;;11.02;4.97;;;6.60;99.90;;;;;;5027781;28;20048;-60
2023/01/09 11:14:17;;;;;;;11.02;5.03;;;6.70;99.90;;;;;;5047324;28;20140;-60
2023/01/09 11:16:57;;;;;;;10.43;4.50;;;6.70;99.90;;;;;;5044350;28;20048;-60
2023/01/09 11:19:25;;;;;;;12.60;4.78;;;6.70;99.90;;;;;;5026096;28;20055;-60
2023/01/09 11:22:13;;;;;;;10.20;4.43;;;6.70;99.90;;;;;;5027091;28;20151;-60
2023/01/09 11:24:39;;;;;;;6.75;4.30;;;6.70;99.90;;;;;;5040013;28;20379;-60
2023/01/09 11:27:22;;;;;;;8.63;4.53;;;6.70;99.90;;;;;;5044573;28;20037;-60
2023/01/09 11:30:14;;;;;;;9.35;4.63;;;6.80;99.90;;;;;;5043140;28;20049;-60
2023/01/09 11:32:41;;;;;;;10.13;4.88;;;6.80;99.90;;;;;;5027217;28;20045;-61
2023/01/09 11:35:17;;;;;;;8.00;4.53;;;6.80;99.90;;;;;;5038907;28;20044;-60
2023/01/09 11:37:45;;;;;;;8.38;4.38;;;6.80;99.90;;;;;;5023985;28;20170;-60
2023/01/09 11:40:19;;;;;;;9.25;5.07;;;6.80;99.90;;;;;;5037392;28;20471;-60
2023/01/09 11:43:10;;;;;;;7.55;4.60;;;6.80;99.90;;;;;;5025083;28;20061;-60
2023/01/09 11:45:43;;;;;;;10.02;4.45;;;6.80;99.90;;;;;;5029846;28;20080;-60
2023/01/09 11:48:34;;;;;;;10.55;5.13;;;6.80;99.90;;;;;;5043454;28;20139;-60
2023/01/09 11:51:03;;;;;;;9.88;4.45;;;6.80;99.90;;;;;;5006038;28;20076;-60
2023/01/09 11:53:47;;;;;;;12.13;5.10;;;6.80;99.90;;;;;;5027197;28;20126;-60
2023/01/09 11:56:15;;;;;;;10.68;4.95;;;6.80;99.90;;;;;;5026900;28;20048;-61
2023/01/09 11:58:42;;;;;;;10.77;5.05;;;6.80;99.90;;;;;;5043647;28;20059;-60
2023/01/09 12:01:29;;;;;;;7.95;4.45;;;6.80;99.90;;;;;;5004535;28;20072;-60
2023/01/09 12:04:16;;;;;;;10.95;5.07;;;6.80;99.90;;;;;;5043601;28;20095;-60
2023/01/09 12:07:18;;;;;;;12.48;4.82;;;6.80;99.90;;;;;;5043691;28;20053;-60
2023/01/09 12:09:53;;;;;;;9.15;5.30;;;6.80;99.90;;;;;;5023478;28;20123;-60
2023/01/09 12:12:29;;;;;;;11.38;5.55;;;6.80;99.90;;;;;;5026528;28;20078;-60
2023/01/09 12:15:17;;;;;;;10.43;5.90;;;6.80;99.90;;;;;;5024412;28;20076;-60
2023/01/09 12:18:00;;;;;;;11.65;6.18;;;6.80;99.90;;;;;;5045045;28;20049;-60
2023/01/09 12:20:38;;;;;;;10.48;5.60;;;6.80;99.90;;;;;;5047187;28;20110;-60
2023/01/09 12:23:37;;;;;;;12.55;5.97;;;6.80;99.90;;;;;;5044854;28;20045;-61
2023/01/09 12:26:06;;;;;;;10.85;5.57;;;6.90;99.90;;;;;;5024205;28;20053;-60
2023/01/09 12:28:46;;;;;;;11.65;5.55;;;6.80;99.90;;;;;;5044746;28;20116;-60
2023/01/09 12:31:41;;;;;;;14.35;6.25;;;6.90;99.90;;;;;;5027310;28;20049;-60
2023/01/09 12:34:07;;;;;;;10.68;5.78;;;6.90;99.90;;;;;;5040967;28;20041;-60
2023/01/09 12:36:54;;;;;;;11.35;6.60;;;6.90;99.90;;;;;;5045013;28;20095;-60
2023/01/09 12:39:50;;;;;;;11.57;6.28;;;6.90;99.90;;;;;;5025593;28;20399;-60
2023/01/09 12:42:37;;;;;;;11.02;6.28;;;6.90;99.90;;;;;;5042939;28;20044;-60
2023/01/09 12:45:28;;;;;;;10.65;6.13;;;6.90;99.90;;;;;;5025816;28;20040;-60
2023/01/09 12:48:02;;;;;;;10.73;6.32;;;6.90;99.90;;;;;;5044770;28;20166;-60
2023/01/09 12:50:55;;;;;;;15.80;6.82;;;6.90;99.90;;;;;;5041681;28;20122;-60
2023/01/09 12:53:33;;;;;;;12.55;7.03;;;6.90;99.90;;;;;;5046460;28;20499;-60
2023/01/09 12:56:07;;;;;;;10.93;6.70;;;6.90;99.90;;;;;;5022756;28;20041;-60
2023/01/09 12:58:50;;;;;;;14.30;8.00;;;6.90;99.90;;;;;;5026938;28;20053;-60
2023/01/09 13:01:28;;;;;;;17.00;7.72;;;6.80;99.90;;;;;;5046925;28;20045;-60
2023/01/09 13:04:09;;;;;;;11.45;7.40;;;6.80;99.90;;;;;;5048220;28;20127;-60
2023/01/09 13:06:42;;;;;;;16.30;7.82;;;6.80;99.90;;;;;;5045143;28;20106;-60
2023/01/09 13:09:32;;;;;;;16.60;7.50;;;6.80;99.90;;;;;;5036325;28;20065;-60
2023/01/09 13:12:11;;;;;;;12.65;7.38;;;6.90;99.90;;;;;;5047075;28;20397;-60
2023/01/09 13:14:50;;;;;;;13.90;7.90;;;6.90;99.90;;;;;;5030233;28;20053;-60
2023/01/09 13:17:52;;;;;;;17.15;8.52;;;6.90;99.90;;;;;;5047691;28;20045;-60
2023/01/09 13:20:46;;;;;;;10.68;8.00;;;6.90;99.90;;;;;;5017435;28;20080;-60
2023/01/09 13:23:30;;;;;;;13.32;9.38;;;6.90;99.90;;;;;;5041630;28;20263;-60
2023/01/09 13:26:03;;;;;;;14.15;8.40;;;6.90;99.90;;;;;;5025674;28;20037;-60
2023/01/09 13:28:45;;;;;;;14.95;8.77;;;6.90;99.90;;;;;;5045950;28;20079;-60